Time;durP1;ratioP1;P1;durP2;ratioP2;P2;SDS_P1;SDS_P2;PMS_P1;PMS_P2;Temp;Humidity;BMP_temperature;BMP_pressure;BME280_temperature;BME280_humidity;BME280_pressure;Samples;Min_cycle;Max_cycle;Signal;HPM_P1;HPM_P2
2022/01/11 00:02:06;;;;;;;51.40;23.83;;;4.40;82.80;;;;;;6243259;23;20434;-59
2022/01/11 00:04:31;;;;;;;54.37;24.37;;;4.30;1.00;;;;;;6242617;23;20476;-60
2022/01/11 00:06:59;;;;;;;52.57;24.30;;;4.30;99.90;;;;;;6243306;23;20154;-59
2022/01/11 00:09:39;;;;;;;49.90;25.67;;;4.30;1.00;;;;;;6243068;23;20200;-59
2022/01/11 00:12:08;;;;;;;51.07;23.20;;;4.30;1.00;;;;;;6240002;23;20365;-60
2022/01/11 00:14:34;;;;;;;50.47;22.30;;;4.20;1.00;;;;;;6243068;23;20422;-60
2022/01/11 00:17:00;;;;;;;49.60;24.00;;;4.20;1.00;;;;;;6243045;23;20376;-59
2022/01/11 00:19:26;;;;;;;45.93;23.40;;;4.20;43.30;;;;;;6243021;23;20138;-59
2022/01/11 00:21:51;;;;;;;47.07;21.10;;;4.30;35.90;;;;;;6242883;23;20381;-58
2022/01/11 00:24:28;;;;;;;41.67;21.83;;;4.30;1.00;;;;;;6242855;23;20421;-60
2022/01/11 00:26:54;;;;;;;44.83;21.00;;;4.30;99.90;;;;;;6242992;23;20538;-60
2022/01/11 00:29:19;;;;;;;45.87;20.60;;;4.20;99.90;;;;;;6244857;23;20409;-60
2022/01/11 00:31:46;;;;;;;43.97;21.60;;;4.20;13.30;;;;;;6245070;23;20142;-59
2022/01/11 00:34:14;;;;;;;42.17;20.20;;;4.20;99.90;;;;;;6245087;23;20704;-59
2022/01/11 00:36:42;;;;;;;42.13;20.00;;;4.20;99.90;;;;;;6244998;23;20380;-59
2022/01/11 00:39:09;;;;;;;39.60;18.23;;;4.20;61.30;;;;;;6245076;23;20358;-59
2022/01/11 00:41:37;;;;;;;36.90;18.07;;;4.30;1.00;;;;;;6245226;23;20372;-59
2022/01/11 00:44:03;;;;;;;36.43;18.70;;;4.20;99.90;;;;;;6244809;23;20435;-59
2022/01/11 00:46:28;;;;;;;39.93;18.47;;;4.30;1.00;;;;;;6241713;23;20787;-59
2022/01/11 00:48:54;;;;;;;42.20;18.57;;;4.20;99.90;;;;;;6244766;23;20146;-59
2022/01/11 00:51:20;;;;;;;43.00;20.20;;;4.20;1.00;;;;;;6244635;23;20159;-59
2022/01/11 00:53:45;;;;;;;40.17;18.93;;;4.20;99.90;;;;;;6244814;23;20508;-59
2022/01/11 00:56:11;;;;;;;38.60;19.73;;;4.20;1.00;;;;;;6244812;23;20523;-60
2022/01/11 00:58:36;;;;;;;40.83;19.67;;;4.10;1.00;;;;;;6244695;23;20192;-59
2022/01/11 01:01:02;;;;;;;41.03;18.50;;;4.20;99.90;;;;;;6244816;23;20146;-59
2022/01/11 01:03:28;;;;;;;44.27;19.53;;;4.10;99.90;;;;;;6214728;23;20154;-59
2022/01/11 01:05:54;;;;;;;38.30;19.13;;;4.20;1.00;;;;;;6244700;23;20162;-59
2022/01/11 01:08:20;;;;;;;39.67;19.43;;;4.20;1.00;;;;;;6244657;23;20700;-59
2022/01/11 01:10:46;;;;;;;43.67;20.20;;;4.20;99.90;;;;;;6244637;23;20369;-59
2022/01/11 01:13:16;;;;;;;39.00;18.90;;;4.20;24.90;;;;;;6244727;23;20154;-59
2022/01/11 01:15:42;;;;;;;39.00;19.53;;;4.10;99.90;;;;;;6244678;23;20200;-59
2022/01/11 01:18:10;;;;;;;40.47;19.23;;;4.10;99.90;;;;;;6244590;23;20358;-55
2022/01/11 01:20:36;;;;;;;43.10;19.80;;;4.20;99.90;;;;;;6244397;23;20385;-59
2022/01/11 01:23:02;;;;;;;41.70;19.20;;;4.20;99.90;;;;;;6244766;23;20381;-59
2022/01/11 01:25:28;;;;;;;44.60;19.40;;;4.10;1.00;;;;;;6244435;23;20209;-59
2022/01/11 01:27:54;;;;;;;36.40;18.70;;;4.20;99.90;;;;;;6244497;23;20708;-60
2022/01/11 01:30:21;;;;;;;41.27;20.83;;;4.20;1.00;;;;;;6244897;23;20235;-59
2022/01/11 01:32:48;;;;;;;43.77;19.37;;;4.30;99.90;;;;;;6244390;23;20149;-60
2022/01/11 01:35:15;;;;;;;42.87;18.73;;;4.20;1.00;;;;;;6244390;23;20388;-59
2022/01/11 01:37:41;;;;;;;40.73;19.70;;;4.20;99.90;;;;;;6244213;23;20368;-60
2022/01/11 01:40:07;;;;;;;42.63;19.40;;;4.10;1.00;;;;;;6244603;23;20387;-60
2022/01/11 01:42:34;;;;;;;48.03;20.80;;;4.00;99.90;;;;;;6217786;23;20212;-59
2022/01/11 01:45:02;;;;;;;45.00;21.20;;;4.00;1.00;;;;;;6244358;23;20427;-59
2022/01/11 01:47:28;;;;;;;47.23;19.60;;;4.10;1.00;;;;;;6244447;23;20368;-60
2022/01/11 01:49:54;;;;;;;48.00;20.70;;;4.10;1.00;;;;;;6217525;23;20396;-60
2022/01/11 01:52:19;;;;;;;54.23;20.90;;;4.10;1.00;;;;;;6244199;23;20162;-61
2022/01/11 01:54:45;;;;;;;48.37;20.87;;;4.00;1.00;;;;;;6244180;23;20406;-58
2022/01/11 01:57:11;;;;;;;50.80;21.00;;;4.00;1.00;;;;;;6217445;23;20166;-60
2022/01/11 01:59:37;;;;;;;48.43;20.30;;;3.90;99.90;;;;;;6244128;23;20160;-60
2022/01/11 02:02:03;;;;;;;47.90;20.50;;;4.00;99.90;;;;;;6244143;23;20153;-60
2022/01/11 02:04:29;;;;;;;39.47;19.67;;;4.00;1.00;;;;;;6244259;23;20435;-60
2022/01/11 02:06:54;;;;;;;48.57;20.50;;;4.00;1.00;;;;;;6244045;23;20381;-60
2022/01/11 02:09:20;;;;;;;46.93;18.87;;;3.90;1.00;;;;;;6243958;23;20560;-60
2022/01/11 02:11:47;;;;;;;43.47;18.80;;;4.00;99.90;;;;;;6244224;23;20174;-61
2022/01/11 02:14:13;;;;;;;45.90;20.23;;;4.10;99.90;;;;;;6244173;23;20158;-61
2022/01/11 02:16:38;;;;;;;41.73;19.50;;;4.10;3.40;;;;;;6244186;23;20369;-60
2022/01/11 02:19:04;;;;;;;54.93;20.23;;;4.10;36.70;;;;;;6242342;23;20361;-61
2022/01/11 02:21:30;;;;;;;47.90;20.50;;;4.10;1.00;;;;;;6244387;23;20216;-64
2022/01/11 02:23:57;;;;;;;43.60;18.83;;;4.00;1.00;;;;;;6217102;23;20181;-60
2022/01/11 02:26:23;;;;;;;46.10;18.87;;;4.10;27.10;;;;;;6244088;23;20146;-61
2022/01/11 02:28:48;;;;;;;47.43;20.60;;;4.00;1.00;;;;;;6243980;23;20721;-65
2022/01/11 02:31:14;;;;;;;42.17;19.47;;;4.00;99.90;;;;;;6243744;23;20448;-61
2022/01/11 02:33:58;;;;;;;44.10;19.00;;;4.00;99.90;;;;;;6244052;23;20150;-60
2022/01/11 02:36:33;;;;;;;45.37;19.13;;;3.90;99.90;;;;;;6240819;23;20173;-60
2022/01/11 02:38:59;;;;;;;48.17;20.50;;;3.90;1.00;;;;;;6244080;23;20368;-60
2022/01/11 02:41:28;;;;;;;43.33;19.77;;;3.90;1.00;;;;;;6243593;23;20455;-60
2022/01/11 02:43:54;;;;;;;48.03;21.20;;;3.90;1.00;;;;;;6243639;23;20424;-61
2022/01/11 02:46:22;;;;;;;46.80;21.70;;;3.90;1.00;;;;;;6243885;23;20368;-61
2022/01/11 02:48:49;;;;;;;45.50;21.70;;;3.80;1.00;;;;;;6243511;23;20376;-61
2022/01/11 02:51:17;;;;;;;49.83;22.20;;;4.00;1.00;;;;;;6243488;23;20384;-61
2022/01/11 02:53:45;;;;;;;46.67;22.57;;;4.00;1.00;;;;;;6243738;23;21086;-61
2022/01/11 02:56:12;;;;;;;41.07;17.93;;;3.90;1.00;;;;;;6243513;23;20381;-61
2022/01/11 02:58:38;;;;;;;43.73;19.87;;;4.00;1.00;;;;;;6243396;23;20462;-60
2022/01/11 03:01:05;;;;;;;42.67;19.40;;;4.00;99.90;;;;;;6243582;23;20419;-60
2022/01/11 03:03:31;;;;;;;47.33;21.30;;;4.00;99.90;;;;;;6243216;23;20392;-60
2022/01/11 03:06:02;;;;;;;43.47;19.10;;;4.00;99.90;;;;;;6216581;23;20848;-61
2022/01/11 03:08:31;;;;;;;45.03;20.10;;;4.00;99.90;;;;;;6243504;23;20152;-60
2022/01/11 03:10:57;;;;;;;46.03;20.33;;;3.90;99.90;;;;;;6243303;23;20388;-61
2022/01/11 03:13:24;;;;;;;51.83;22.17;;;3.90;99.90;;;;;;6243597;23;20661;-61
2022/01/11 03:15:50;;;;;;;49.10;20.93;;;3.90;1.00;;;;;;6243420;23;20361;-61
2022/01/11 03:18:16;;;;;;;45.27;20.63;;;3.90;1.00;;;;;;6216886;23;20384;-60
2022/01/11 03:20:44;;;;;;;56.00;20.40;;;3.80;1.00;;;;;;6243487;23;20368;-61
2022/01/11 03:23:10;;;;;;;46.53;21.97;;;3.90;1.00;;;;;;6243529;23;20483;-60
2022/01/11 03:25:35;;;;;;;50.53;19.93;;;3.90;1.00;;;;;;6216177;23;20447;-61
2022/01/11 03:28:02;;;;;;;53.07;20.10;;;3.90;1.00;;;;;;6216453;23;20723;-61
2022/01/11 03:30:28;;;;;;;54.87;21.40;;;4.00;1.00;;;;;;6243156;23;20142;-61
2022/01/11 03:32:54;;;;;;;45.13;20.47;;;4.00;1.00;;;;;;6243270;23;20447;-61
2022/01/11 03:35:20;;;;;;;43.77;20.20;;;3.90;1.00;;;;;;6243451;23;20158;-61
2022/01/11 03:37:46;;;;;;;43.07;19.83;;;4.00;1.00;;;;;;6242943;23;20161;-60
2022/01/11 03:40:17;;;;;;;47.33;19.67;;;4.00;1.00;;;;;;6216359;23;20385;-61
2022/01/11 03:42:44;;;;;;;49.50;20.70;;;4.00;1.00;;;;;;6240717;23;20369;-61
2022/01/11 03:45:16;;;;;;;44.87;19.93;;;4.00;1.00;;;;;;6243007;23;20421;-65
2022/01/11 03:47:42;;;;;;;49.37;20.93;;;3.90;1.00;;;;;;6242929;23;20400;-61
2022/01/11 03:50:10;;;;;;;51.37;21.83;;;4.00;1.00;;;;;;6242987;23;20385;-60
2022/01/11 03:52:37;;;;;;;61.63;22.30;;;4.00;1.00;;;;;;6243084;23;20276;-60
2022/01/11 03:55:11;;;;;;;54.97;22.70;;;4.00;1.00;;;;;;6243036;23;20373;-61
2022/01/11 03:57:37;;;;;;;55.00;22.97;;;4.00;1.00;;;;;;6241110;23;20357;-61
2022/01/11 04:00:10;;;;;;;58.90;23.30;;;3.90;1.00;;;;;;6216196;23;20417;-61
2022/01/11 04:02:36;;;;;;;52.63;22.50;;;4.00;1.00;;;;;;6243286;23;20423;-61
2022/01/11 04:05:02;;;;;;;55.60;23.53;;;3.90;1.00;;;;;;6242980;23;20425;-61
2022/01/11 04:07:28;;;;;;;63.50;22.87;;;4.00;1.00;;;;;;6243456;23;20570;-61
2022/01/11 04:09:55;;;;;;;61.00;22.43;;;4.00;1.00;;;;;;6243144;23;20507;-61
2022/01/11 04:12:22;;;;;;;55.40;21.50;;;4.00;1.00;;;;;;6216332;23;20154;-61
2022/01/11 04:14:47;;;;;;;64.53;23.30;;;4.00;1.00;;;;;;6216684;23;20516;-61
2022/01/11 04:17:13;;;;;;;61.20;22.77;;;4.00;1.00;;;;;;6242840;23;20436;-61
2022/01/11 04:19:40;;;;;;;61.87;22.00;;;4.10;1.00;;;;;;6242991;23;20225;-61
2022/01/11 04:22:05;;;;;;;57.53;20.80;;;4.20;1.00;;;;;;6243057;23;20522;-61
2022/01/11 04:24:31;;;;;;;52.90;18.90;;;4.10;1.00;;;;;;6242623;23;20439;-61
2022/01/11 04:26:57;;;;;;;69.60;22.20;;;4.10;1.00;;;;;;6243046;23;20138;-61
2022/01/11 04:29:22;;;;;;;62.83;21.97;;;4.10;1.00;;;;;;6243022;23;20469;-61
2022/01/11 04:31:48;;;;;;;62.43;20.23;;;4.20;1.00;;;;;;6242972;23;20177;-61
2022/01/11 04:34:14;;;;;;;65.50;21.90;;;4.10;1.00;;;;;;6242889;23;20474;-61
2022/01/11 04:36:40;;;;;;;52.30;17.97;;;4.10;1.00;;;;;;6242917;23;20509;-61
2022/01/11 04:39:09;;;;;;;59.20;18.63;;;4.00;1.00;;;;;;6242705;23;20142;-60
2022/01/11 04:41:35;;;;;;;48.40;17.90;;;4.10;1.00;;;;;;6216008;23;20241;-60
2022/01/11 04:44:02;;;;;;;51.40;17.10;;;4.10;1.00;;;;;;6242916;23;20506;-60
2022/01/11 04:46:27;;;;;;;45.37;16.77;;;4.10;1.00;;;;;;6242989;23;20361;-60
2022/01/11 04:48:54;;;;;;;49.33;16.90;;;4.10;1.00;;;;;;6242736;23;20462;-60
2022/01/11 04:51:20;;;;;;;41.10;16.90;;;4.10;1.00;;;;;;6243037;23;20439;-60
2022/01/11 04:53:47;;;;;;;47.70;17.60;;;4.10;1.00;;;;;;6242404;23;20451;-60
2022/01/11 04:56:13;;;;;;;49.33;15.90;;;4.20;1.00;;;;;;6242793;23;20392;-60
2022/01/11 04:58:39;;;;;;;54.60;17.20;;;4.20;99.90;;;;;;6243065;23;20381;-60
2022/01/11 05:01:05;;;;;;;46.37;16.13;;;4.20;36.00;;;;;;6242792;23;20388;-60
2022/01/11 05:03:30;;;;;;;54.00;17.50;;;4.10;1.00;;;;;;6242718;23;20154;-60
2022/01/11 05:05:56;;;;;;;43.63;16.80;;;4.10;1.00;;;;;;6243117;23;20138;-60
2022/01/11 05:08:21;;;;;;;42.20;17.30;;;4.10;1.00;;;;;;6242701;23;20158;-60
2022/01/11 05:10:47;;;;;;;46.30;15.90;;;4.10;99.90;;;;;;6243296;23;20925;-60
2022/01/11 05:13:14;;;;;;;44.37;17.30;;;4.10;99.90;;;;;;6245020;23;20150;-60
2022/01/11 05:15:40;;;;;;;50.17;17.93;;;4.10;99.90;;;;;;6244556;23;20170;-60
2022/01/11 05:18:07;;;;;;;45.87;16.50;;;4.10;99.90;;;;;;6244824;23;20377;-60
2022/01/11 05:20:33;;;;;;;41.23;15.57;;;4.10;99.90;;;;;;6244628;23;20369;-61
2022/01/11 05:22:59;;;;;;;42.57;16.23;;;4.00;99.90;;;;;;6244275;23;20385;-61
2022/01/11 05:25:24;;;;;;;43.93;16.90;;;3.90;99.90;;;;;;6244601;23;20423;-60
2022/01/11 05:27:50;;;;;;;51.00;17.20;;;3.90;99.90;;;;;;6244677;23;20173;-60
2022/01/11 05:30:16;;;;;;;47.97;16.30;;;3.80;99.90;;;;;;6244742;23;20568;-61
2022/01/11 05:32:42;;;;;;;39.77;16.27;;;3.80;1.00;;;;;;6241394;23;20152;-60
2022/01/11 05:35:10;;;;;;;53.13;17.70;;;3.80;1.00;;;;;;6244725;23;20538;-61
2022/01/11 05:37:35;;;;;;;45.87;17.73;;;3.70;1.00;;;;;;6244312;23;20419;-60
2022/01/11 05:40:02;;;;;;;49.93;16.40;;;3.80;1.00;;;;;;6244543;23;20365;-61
2022/01/11 05:42:28;;;;;;;47.40;16.73;;;3.70;1.00;;;;;;6244238;23;20165;-61
2022/01/11 05:44:54;;;;;;;47.67;16.87;;;3.70;1.00;;;;;;6244228;23;20405;-60
2022/01/11 05:47:20;;;;;;;48.77;17.77;;;3.70;1.00;;;;;;6244558;23;20422;-61
2022/01/11 05:49:45;;;;;;;47.23;16.90;;;3.60;1.00;;;;;;6217331;23;20153;-60
2022/01/11 05:52:11;;;;;;;42.73;15.83;;;3.60;1.00;;;;;;6244164;23;20385;-59
2022/01/11 05:54:37;;;;;;;55.73;16.53;;;3.60;99.90;;;;;;6244257;23;20227;-61
2022/01/11 05:57:03;;;;;;;45.77;16.60;;;3.40;99.90;;;;;;6244419;23;20216;-60
2022/01/11 05:59:28;;;;;;;45.30;16.80;;;3.40;99.90;;;;;;6217720;23;20170;-61
2022/01/11 06:01:54;;;;;;;39.70;16.83;;;3.30;99.90;;;;;;6244563;23;20987;-61
2022/01/11 06:04:19;;;;;;;39.87;15.93;;;3.40;1.00;;;;;;6244233;23;20633;-61
2022/01/11 06:06:45;;;;;;;49.53;18.27;;;3.40;1.00;;;;;;6244156;23;20150;-60
2022/01/11 06:09:10;;;;;;;48.33;16.87;;;3.40;1.00;;;;;;6217553;23;20241;-61
2022/01/11 06:11:36;;;;;;;49.63;17.00;;;3.40;1.00;;;;;;6244156;23;20472;-61
2022/01/11 06:14:02;;;;;;;43.60;15.70;;;3.40;1.00;;;;;;6244057;23;20495;-61
2022/01/11 06:16:27;;;;;;;40.63;16.07;;;3.40;1.00;;;;;;6244168;23;20147;-61
2022/01/11 06:18:54;;;;;;;40.00;15.30;;;3.50;1.00;;;;;;6243994;23;20439;-61
2022/01/11 06:21:20;;;;;;;46.00;16.67;;;3.50;1.00;;;;;;6244082;23;20149;-61
2022/01/11 06:23:46;;;;;;;40.80;16.50;;;3.50;1.00;;;;;;6192053;23;20523;-61
2022/01/11 06:26:13;;;;;;;43.97;15.30;;;3.50;1.00;;;;;;6244104;23;20411;-61
2022/01/11 06:28:39;;;;;;;53.30;16.37;;;3.50;1.00;;;;;;6244083;23;20361;-61
2022/01/11 06:31:05;;;;;;;48.90;16.63;;;3.50;1.00;;;;;;6244287;23;20468;-61
2022/01/11 06:33:31;;;;;;;42.53;16.50;;;3.50;1.00;;;;;;6244024;23;20364;-61
2022/01/11 06:35:56;;;;;;;42.23;16.10;;;3.60;1.00;;;;;;6243540;23;20691;-62
2022/01/11 06:38:22;;;;;;;44.33;16.87;;;3.60;1.00;;;;;;6217609;23;20158;-61
2022/01/11 06:40:47;;;;;;;35.60;16.57;;;3.70;1.00;;;;;;6244075;23;20229;-61
2022/01/11 06:43:13;;;;;;;46.47;15.80;;;3.70;1.00;;;;;;6243787;23;20158;-61
2022/01/11 06:45:40;;;;;;;48.33;16.03;;;3.70;1.00;;;;;;6244345;23;20174;-61
2022/01/11 06:48:06;;;;;;;45.57;15.43;;;3.80;1.00;;;;;;6244358;23;20188;-61
2022/01/11 06:50:32;;;;;;;43.10;15.53;;;3.80;1.00;;;;;;6244126;23;20360;-61
2022/01/11 06:52:58;;;;;;;43.03;15.47;;;3.80;1.00;;;;;;6243810;23;20432;-61
2022/01/11 06:55:24;;;;;;;44.60;15.33;;;3.70;1.00;;;;;;6243962;23;20160;-61
2022/01/11 06:57:50;;;;;;;43.60;16.20;;;3.70;1.00;;;;;;6243876;23;20148;-61
2022/01/11 07:00:17;;;;;;;46.13;15.43;;;3.80;1.00;;;;;;6243771;23;20388;-61
2022/01/11 07:02:43;;;;;;;33.60;14.80;;;3.80;1.00;;;;;;6243537;23;20150;-61
2022/01/11 07:05:09;;;;;;;33.60;15.17;;;3.90;1.00;;;;;;6243613;23;20883;-61
2022/01/11 07:07:34;;;;;;;46.43;18.70;;;3.90;1.00;;;;;;6243453;23;20412;-61
2022/01/11 07:10:00;;;;;;;39.60;15.83;;;3.90;1.00;;;;;;6243618;23;20219;-61
2022/01/11 07:12:26;;;;;;;48.80;17.67;;;3.90;99.90;;;;;;6243554;23;20157;-60
2022/01/11 07:14:51;;;;;;;45.23;16.07;;;3.90;99.90;;;;;;6243712;23;20142;-61
2022/01/11 07:17:17;;;;;;;44.07;15.63;;;3.80;33.60;;;;;;6216683;23;20185;-62
2022/01/11 07:19:42;;;;;;;42.27;17.23;;;3.80;99.90;;;;;;6240303;23;20149;-61
2022/01/11 07:22:09;;;;;;;43.67;16.20;;;3.80;99.90;;;;;;6243459;23;20162;-61
2022/01/11 07:24:34;;;;;;;38.73;16.83;;;3.70;99.90;;;;;;6243371;23;20173;-55
2022/01/11 07:27:00;;;;;;;45.73;16.30;;;3.80;99.90;;;;;;6243502;23;20380;-61
2022/01/11 07:29:26;;;;;;;46.17;15.97;;;3.90;99.90;;;;;;6243726;23;20229;-61
2022/01/11 07:31:51;;;;;;;41.93;15.43;;;3.80;99.90;;;;;;6243642;23;20157;-61
2022/01/11 07:34:17;;;;;;;37.07;14.90;;;3.90;17.50;;;;;;6243307;23;20160;-60
2022/01/11 07:36:43;;;;;;;36.30;15.30;;;3.90;1.00;;;;;;6240054;23;20179;-61
2022/01/11 07:39:12;;;;;;;44.63;15.37;;;3.90;99.90;;;;;;6243231;23;20168;-61
2022/01/11 07:41:38;;;;;;;41.60;15.30;;;3.90;99.90;;;;;;6243236;23;20385;-63
2022/01/11 07:44:03;;;;;;;46.53;15.70;;;3.90;99.90;;;;;;6242179;23;20423;-60
2022/01/11 07:46:30;;;;;;;39.00;15.90;;;3.90;99.90;;;;;;6241376;23;20164;-61
2022/01/11 07:48:57;;;;;;;40.80;14.40;;;3.80;99.90;;;;;;6241090;23;20153;-62
2022/01/11 07:51:22;;;;;;;46.53;12.93;;;3.90;1.00;;;;;;6242932;23;20361;-60
2022/01/11 07:53:49;;;;;;;36.67;13.80;;;3.90;40.50;;;;;;6242648;23;20489;-61
2022/01/11 07:56:15;;;;;;;39.13;14.50;;;3.90;99.90;;;;;;6241798;23;20142;-60
2022/01/11 07:58:40;;;;;;;36.30;13.87;;;3.90;1.00;;;;;;6241798;23;20881;-61
2022/01/11 08:01:06;;;;;;;40.67;15.10;;;3.90;99.90;;;;;;6242089;23;20248;-60
2022/01/11 08:03:31;;;;;;;35.03;13.47;;;3.80;99.90;;;;;;6242665;23;20173;-61
2022/01/11 08:05:57;;;;;;;35.13;13.63;;;3.80;99.90;;;;;;6243128;23;20146;-55
2022/01/11 08:08:22;;;;;;;30.90;13.57;;;3.70;1.00;;;;;;6242642;23;20161;-59
2022/01/11 08:10:48;;;;;;;28.27;12.77;;;3.80;1.00;;;;;;6213449;23;20525;-59
2022/01/11 08:13:13;;;;;;;44.40;14.40;;;3.80;1.00;;;;;;6242395;23;20149;-60
2022/01/11 08:15:39;;;;;;;42.63;12.63;;;3.90;99.90;;;;;;6239073;23;20526;-61
2022/01/11 08:18:06;;;;;;;31.60;12.47;;;3.80;1.00;;;;;;6240604;23;20229;-59
2022/01/11 08:20:32;;;;;;;33.43;13.40;;;3.80;99.90;;;;;;6240703;23;20629;-60
2022/01/11 08:22:57;;;;;;;38.23;13.43;;;3.80;1.00;;;;;;6241708;23;20380;-59
2022/01/11 08:25:24;;;;;;;43.47;16.57;;;3.90;1.00;;;;;;6241598;23;21028;-60
2022/01/11 08:27:50;;;;;;;39.47;14.70;;;3.90;1.00;;;;;;6241088;23;20577;-60
2022/01/11 08:30:16;;;;;;;44.00;14.70;;;3.90;1.00;;;;;;6241371;23;20384;-61
2022/01/11 08:32:42;;;;;;;42.73;15.10;;;3.90;99.90;;;;;;6215000;23;20381;-60
2022/01/11 08:35:08;;;;;;;38.33;15.50;;;3.90;1.00;;;;;;6215516;23;20146;-61
2022/01/11 08:37:34;;;;;;;35.90;14.80;;;3.90;1.00;;;;;;6240377;23;20223;-61
2022/01/11 08:39:59;;;;;;;43.03;16.63;;;3.90;99.90;;;;;;6241162;23;20373;-60
2022/01/11 08:42:30;;;;;;;42.67;14.57;;;3.90;18.40;;;;;;6242771;23;20138;-61
2022/01/11 08:44:56;;;;;;;39.13;14.90;;;3.90;99.90;;;;;;6241688;23;20549;-58
2022/01/11 08:47:24;;;;;;;37.40;15.70;;;4.00;99.90;;;;;;6242336;23;20693;-60
2022/01/11 08:49:50;;;;;;;38.10;15.60;;;4.00;99.90;;;;;;6243922;23;20353;-54
2022/01/11 08:52:15;;;;;;;34.30;13.93;;;3.90;1.00;;;;;;6243118;23;20395;-58
2022/01/11 08:54:41;;;;;;;36.50;14.50;;;3.90;1.00;;;;;;6244236;23;20189;-59
2022/01/11 08:57:07;;;;;;;36.40;14.37;;;4.00;99.90;;;;;;6243695;23;20376;-58
2022/01/11 08:59:33;;;;;;;38.53;14.27;;;4.00;99.90;;;;;;6243150;23;20184;-59
2022/01/11 09:02:00;;;;;;;47.20;14.63;;;4.00;99.90;;;;;;6242683;23;20153;-58
2022/01/11 09:04:27;;;;;;;36.70;14.20;;;4.10;1.00;;;;;;6244495;23;20416;-58
2022/01/11 09:06:57;;;;;;;29.60;12.60;;;4.10;99.90;;;;;;6244896;23;20353;-58
2022/01/11 09:09:28;;;;;;;37.80;12.10;;;4.10;29.20;;;;;;6218189;23;21013;-58
2022/01/11 09:11:54;;;;;;;32.07;13.00;;;4.10;1.00;;;;;;6244857;23;20357;-57
2022/01/11 09:14:20;;;;;;;31.50;14.27;;;4.10;1.00;;;;;;6217774;23;20384;-57
2022/01/11 09:16:46;;;;;;;26.00;11.13;;;4.20;1.00;;;;;;6244736;23;20392;-59
2022/01/11 09:19:14;;;;;;;32.90;12.10;;;4.20;90.50;;;;;;6244682;23;20380;-57
2022/01/11 09:21:39;;;;;;;27.17;10.90;;;4.30;1.00;;;;;;6218108;23;20173;-58
2022/01/11 09:24:05;;;;;;;25.33;11.03;;;4.20;1.00;;;;;;6244143;23;20431;-58
2022/01/11 09:26:31;;;;;;;29.20;12.03;;;4.20;1.00;;;;;;6245037;23;20153;-59
2022/01/11 09:28:57;;;;;;;29.10;12.33;;;4.20;1.00;;;;;;6243957;23;20154;-58
2022/01/11 09:31:22;;;;;;;26.97;11.50;;;4.30;99.90;;;;;;6244339;23;20505;-57
2022/01/11 09:33:50;;;;;;;27.40;11.83;;;4.20;99.90;;;;;;6242369;23;20407;-57
2022/01/11 09:36:16;;;;;;;38.63;11.00;;;4.30;99.90;;;;;;6244155;23;20154;-58
2022/01/11 09:38:41;;;;;;;26.60;11.70;;;4.40;1.00;;;;;;6244330;23;20375;-57
2022/01/11 09:41:07;;;;;;;30.47;10.83;;;4.40;1.00;;;;;;6243050;23;20154;-57
2022/01/11 09:43:33;;;;;;;22.03;10.73;;;4.40;1.00;;;;;;6242117;23;20149;-57
2022/01/11 09:45:58;;;;;;;22.20;9.90;;;4.40;1.00;;;;;;6243264;23;20165;-58
2022/01/11 09:48:27;;;;;;;25.03;11.13;;;4.40;1.00;;;;;;6216490;23;20185;-57
2022/01/11 09:50:53;;;;;;;31.77;11.83;;;4.40;99.90;;;;;;6216571;23;20177;-57
2022/01/11 09:53:19;;;;;;;28.10;11.97;;;4.40;1.00;;;;;;6216145;23;20462;-57
2022/01/11 09:55:45;;;;;;;28.07;12.37;;;4.40;1.00;;;;;;6243544;23;20178;-57
2022/01/11 09:58:12;;;;;;;36.27;14.30;;;4.50;1.00;;;;;;6243615;23;20165;-56
2022/01/11 10:00:39;;;;;;;38.20;13.57;;;4.50;1.00;;;;;;6244525;23;20376;-58
2022/01/11 10:03:06;;;;;;;32.77;14.70;;;4.60;1.00;;;;;;6244222;23;20377;-57
2022/01/11 10:05:35;;;;;;;29.87;13.40;;;4.70;99.90;;;;;;6244178;23;20710;-58
2022/01/11 10:08:18;;;;;;;30.80;14.93;;;4.80;99.90;;;;;;6243964;23;20948;-58
2022/01/11 10:10:44;;;;;;;34.50;14.10;;;4.80;99.90;;;;;;6244045;23;20854;-58
2022/01/11 10:13:34;;;;;;;29.50;14.03;;;4.80;1.00;;;;;;6244129;23;20412;-60
2022/01/11 10:16:24;;;;;;;36.00;14.40;;;4.90;99.90;;;;;;6244266;23;20598;-58
2022/01/11 10:18:52;;;;;;;28.07;13.87;;;4.80;99.90;;;;;;6244580;23;20364;-59
2022/01/11 10:21:33;;;;;;;38.10;14.13;;;4.90;99.90;;;;;;6244023;23;20373;-58
2022/01/11 10:23:59;;;;;;;38.30;13.90;;;5.00;46.40;;;;;;6244203;23;20420;-60
2022/01/11 10:26:42;;;;;;;46.63;13.40;;;5.00;1.00;;;;;;6241476;23;20834;-60
2022/01/11 10:29:40;;;;;;;24.50;12.17;;;5.00;1.00;;;;;;6244395;23;20387;-58
2022/01/11 10:32:32;;;;;;;35.67;13.13;;;5.10;1.00;;;;;;6244285;23;20376;-59
2022/01/11 10:35:17;;;;;;;34.90;13.20;;;5.50;99.90;;;;;;6243212;23;20389;-60
2022/01/11 10:37:48;;;;;;;23.00;11.90;;;5.50;1.00;;;;;;6241409;23;20772;-58
2022/01/11 10:40:17;;;;;;;22.00;10.77;;;5.50;1.00;;;;;;6242611;23;20515;-54
2022/01/11 10:42:58;;;;;;;28.90;12.00;;;5.50;44.30;;;;;;6243945;23;20384;-60
2022/01/11 10:45:35;;;;;;;25.93;12.00;;;6.00;1.00;;;;;;6243753;23;20478;-60
2022/01/11 10:48:05;;;;;;;25.03;9.23;;;6.40;99.90;;;;;;6243669;23;20360;-58
2022/01/11 10:50:37;;;;;;;29.47;11.93;;;7.30;99.90;;;;;;6243553;23;20376;-57
2022/01/11 10:53:14;;;;;;;16.40;9.87;;;7.60;99.90;;;;;;6216688;23;21078;-58
2022/01/11 10:55:40;;;;;;;21.63;10.93;;;8.00;99.90;;;;;;6243528;23;20377;-57
2022/01/11 10:58:09;;;;;;;22.70;10.17;;;8.10;99.90;;;;;;6241238;23;20431;-58
2022/01/11 11:00:37;;;;;;;27.80;10.87;;;8.00;99.90;;;;;;6243434;23;20361;-58
2022/01/11 11:03:13;;;;;;;21.57;9.27;;;8.00;1.00;;;;;;6243530;23;20377;-60
2022/01/11 11:05:47;;;;;;;25.30;10.23;;;8.10;99.90;;;;;;6242311;23;20412;-60
2022/01/11 11:08:25;;;;;;;26.80;11.10;;;8.10;99.90;;;;;;6241435;23;20399;-59
2022/01/11 11:11:00;;;;;;;24.57;11.40;;;8.10;99.90;;;;;;6215717;23;20397;-57
2022/01/11 11:13:43;;;;;;;32.23;12.20;;;8.20;99.90;;;;;;6242882;23;20361;-58
2022/01/11 11:16:16;;;;;;;26.80;11.73;;;8.70;99.90;;;;;;6242752;23;20722;-59
2022/01/11 11:18:44;;;;;;;22.83;10.27;;;9.10;1.00;;;;;;6243672;23;20818;-58
2022/01/11 11:21:32;;;;;;;21.87;10.17;;;10.00;99.90;;;;;;6243862;23;20381;-58
2022/01/11 11:24:01;;;;;;;24.20;10.57;;;10.50;1.00;;;;;;6243482;23;20420;-59
2022/01/11 11:26:29;;;;;;;19.73;10.50;;;10.30;1.00;;;;;;6216555;23;20395;-57
2022/01/11 11:28:56;;;;;;;19.73;10.47;;;10.00;99.90;;;;;;6216811;23;20468;-57
2022/01/11 11:31:21;;;;;;;21.00;10.60;;;9.70;1.00;;;;;;6243048;23;20442;-57
2022/01/11 11:33:50;;;;;;;24.43;11.17;;;9.40;1.00;;;;;;6243385;23;20389;-59
2022/01/11 11:36:16;;;;;;;26.27;10.97;;;9.40;1.00;;;;;;6241751;23;20217;-59
2022/01/11 11:38:56;;;;;;;24.70;11.07;;;9.20;1.00;;;;;;6243306;23;20372;-60
2022/01/11 11:41:23;;;;;;;27.77;11.10;;;9.20;1.00;;;;;;6243464;23;20365;-60
2022/01/11 11:44:26;;;;;;;23.87;11.30;;;9.70;99.90;;;;;;6243506;23;20448;-60
2022/01/11 11:46:54;;;;;;;22.47;11.70;;;10.10;99.90;;;;;;6150319;23;20398;-60
2022/01/11 11:49:44;;;;;;;25.53;10.90;;;10.10;1.00;;;;;;6226823;23;20389;-60
2022/01/11 11:52:48;;;;;;;22.80;10.97;;;10.30;1.00;;;;;;6243345;23;20385;-60
2022/01/11 11:55:20;;;;;;;23.47;10.40;;;9.70;1.00;;;;;;6242741;23;20407;-60
2022/01/11 11:57:47;;;;;;;21.73;10.33;;;8.90;1.00;;;;;;6243108;23;20368;-62
2022/01/11 12:00:25;;;;;;;21.60;10.90;;;8.80;99.90;;;;;;6243272;23;20454;-61
2022/01/11 12:02:58;;;;;;;20.40;10.43;;;8.90;99.90;;;;;;6243168;23;20368;-60
2022/01/11 12:05:33;;;;;;;24.83;10.27;;;8.70;7.40;;;;;;6243198;23;20485;-55
2022/01/11 12:08:19;;;;;;;24.63;10.33;;;8.50;1.00;;;;;;6243015;23;20372;-59
2022/01/11 12:10:52;;;;;;;18.57;10.90;;;8.00;1.00;;;;;;6242713;23;20537;-58
2022/01/11 12:13:45;;;;;;;19.57;10.40;;;7.70;1.00;;;;;;6243134;23;20380;-63
2022/01/11 12:16:39;;;;;;;20.30;10.10;;;7.60;1.00;;;;;;6241364;23;20377;-59
2022/01/11 12:19:13;;;;;;;23.20;10.30;;;7.70;99.90;;;;;;6243022;23;20688;-62
2022/01/11 12:21:52;;;;;;;20.83;10.70;;;7.50;99.90;;;;;;6215905;23;20396;-59
2022/01/11 12:24:34;;;;;;;21.40;9.40;;;7.50;99.90;;;;;;6243345;23;20413;-60
2022/01/11 12:26:59;;;;;;;27.63;10.67;;;7.60;2.50;;;;;;6215951;23;20901;-61
2022/01/11 12:29:26;;;;;;;19.13;10.03;;;7.40;21.30;;;;;;6243367;23;20365;-61
2022/01/11 12:31:59;;;;;;;27.50;11.10;;;6.90;1.00;;;;;;6243215;23;20158;-61
2022/01/11 12:34:47;;;;;;;22.63;10.23;;;6.60;1.00;;;;;;6243032;23;20372;-61
2022/01/11 12:37:31;;;;;;;23.83;10.40;;;7.10;1.00;;;;;;6242943;23;20417;-61
2022/01/11 12:40:12;;;;;;;20.53;8.63;;;8.30;99.90;;;;;;6242926;23;20360;-61
2022/01/11 12:43:06;;;;;;;19.20;9.80;;;9.60;99.90;;;;;;6243230;23;20361;-61
2022/01/11 12:46:01;;;;;;;15.50;8.77;;;10.70;1.00;;;;;;6241902;23;20466;-61
2022/01/11 12:48:42;;;;;;;15.20;9.13;;;11.70;1.00;;;;;;6243196;23;20377;-59
2022/01/11 12:51:09;;;;;;;16.27;8.70;;;12.80;1.00;;;;;;6242784;23;20784;-59